Time;durP1;ratioP1;P1;durP2;ratioP2;P2;SDS_P1;SDS_P2;PMS_P1;PMS_P2;Temp;Humidity;BMP_temperature;BMP_pressure;BME280_temperature;BME280_humidity;BME280_pressure;Samples;Min_cycle;Max_cycle;Signal;HPM_P1;HPM_P2
2021/04/08 00:00:06;;;;;;;5.53;5.03;;;3.40;99.90;;;;;;4930328;29;20620;-88
2021/04/08 00:02:32;;;;;;;5.18;4.68;;;3.30;99.90;;;;;;4921526;29;20219;-88
2021/04/08 00:05:00;;;;;;;6.57;4.90;;;3.20;99.90;;;;;;4920307;29;20206;-87
2021/04/08 00:07:26;;;;;;;8.57;5.60;;;3.20;99.90;;;;;;4919225;29;20211;-88
2021/04/08 00:09:52;;;;;;;8.38;7.03;;;3.20;99.90;;;;;;4919956;29;20215;-87
2021/04/08 00:12:18;;;;;;;8.82;6.65;;;3.10;99.90;;;;;;4919064;29;20209;-88
2021/04/08 00:14:45;;;;;;;7.70;5.55;;;3.10;99.90;;;;;;4918225;29;20206;-88
2021/04/08 00:17:11;;;;;;;7.30;5.43;;;3.10;99.90;;;;;;4919153;29;20210;-87
2021/04/08 00:19:37;;;;;;;8.98;6.00;;;3.10;99.90;;;;;;4919707;29;20290;-88
2021/04/08 00:22:04;;;;;;;8.02;5.95;;;3.10;99.90;;;;;;4919249;29;20215;-87
2021/04/08 00:24:30;;;;;;;8.02;6.20;;;3.10;99.90;;;;;;4918516;29;20207;-87
2021/04/08 00:26:56;;;;;;;7.10;6.40;;;3.20;99.90;;;;;;4927853;29;20187;-87
2021/04/08 00:29:23;;;;;;;6.28;5.30;;;3.20;99.90;;;;;;4940456;29;20211;-86
2021/04/08 00:31:50;;;;;;;10.45;5.82;;;3.20;99.90;;;;;;4940812;29;20188;-86
2021/04/08 00:34:16;;;;;;;7.43;5.57;;;3.20;99.90;;;;;;4940669;29;20243;-87
2021/04/08 00:36:42;;;;;;;8.27;6.03;;;3.20;99.90;;;;;;4940448;29;20183;-86
2021/04/08 00:39:11;;;;;;;6.93;5.80;;;3.20;99.90;;;;;;4940584;29;20209;-87
2021/04/08 00:41:37;;;;;;;4.88;4.35;;;3.20;99.90;;;;;;4927161;29;20242;-85
2021/04/08 00:44:04;;;;;;;5.22;4.72;;;3.20;99.90;;;;;;4932394;29;20199;-86
2021/04/08 00:46:30;;;;;;;6.20;5.60;;;3.30;99.90;;;;;;4941047;29;20217;-85
2021/04/08 00:48:57;;;;;;;6.20;5.32;;;3.30;99.90;;;;;;4940564;29;20205;-87
2021/04/08 00:51:23;;;;;;;7.00;6.30;;;3.30;99.90;;;;;;4939616;29;20241;-86
2021/04/08 00:53:51;;;;;;;9.43;5.72;;;3.30;99.90;;;;;;4938669;29;20222;-86
2021/04/08 00:56:19;;;;;;;9.00;5.78;;;3.30;99.90;;;;;;4937404;29;20207;-87
2021/04/08 00:58:45;;;;;;;7.22;6.53;;;3.40;99.90;;;;;;4939587;29;20209;-87
2021/04/08 01:01:12;;;;;;;8.35;6.80;;;3.30;99.90;;;;;;4929145;29;20243;-87
2021/04/08 01:03:39;;;;;;;9.27;5.85;;;3.30;99.90;;;;;;4926528;29;20211;-87
2021/04/08 01:06:06;;;;;;;7.07;6.30;;;3.40;99.90;;;;;;4927666;29;20298;-86
2021/04/08 01:08:32;;;;;;;11.50;5.97;;;3.40;99.90;;;;;;4924366;29;20573;-86
2021/04/08 01:10:59;;;;;;;9.10;5.15;;;3.40;99.90;;;;;;4925093;29;20328;-87
2021/04/08 01:13:28;;;;;;;8.10;4.80;;;3.50;99.90;;;;;;4924727;29;20429;-86
2021/04/08 01:15:56;;;;;;;8.23;5.88;;;3.50;99.90;;;;;;4929723;29;20191;-86
2021/04/08 01:18:33;;;;;;;8.95;5.00;;;3.50;99.90;;;;;;4923495;29;20215;-86
2021/04/08 01:21:08;;;;;;;5.10;4.60;;;3.60;99.90;;;;;;4932264;29;20223;-86
2021/04/08 01:24:11;;;;;;;5.60;4.88;;;3.60;99.90;;;;;;4943145;29;20196;-85
2021/04/08 01:27:20;;;;;;;5.78;5.10;;;3.60;99.90;;;;;;4934406;29;20241;-84
2021/04/08 01:30:11;;;;;;;5.53;4.90;;;3.60;99.10;;;;;;4928378;29;20246;-85
2021/04/08 01:32:43;;;;;;;6.68;5.65;;;3.70;99.50;;;;;;4941243;29;20191;-85
2021/04/08 01:35:12;;;;;;;6.75;5.18;;;3.70;99.60;;;;;;4934847;29;20216;-86
2021/04/08 01:37:47;;;;;;;7.40;5.57;;;3.70;99.90;;;;;;4936940;29;20242;-86
2021/04/08 01:40:16;;;;;;;8.52;4.68;;;3.80;99.90;;;;;;4940983;29;20213;-86
2021/04/08 01:42:45;;;;;;;5.63;5.03;;;3.80;99.90;;;;;;4942402;29;20258;-86
2021/04/08 01:45:13;;;;;;;6.80;5.25;;;3.80;99.90;;;;;;4934833;29;20212;-86
2021/04/08 01:47:43;;;;;;;6.38;5.32;;;3.90;99.90;;;;;;4926835;29;20200;-87
2021/04/08 01:50:10;;;;;;;5.65;5.15;;;3.90;99.90;;;;;;4923114;29;20230;-87
2021/04/08 01:52:40;;;;;;;5.43;4.38;;;4.00;99.80;;;;;;4922875;29;20208;-86
2021/04/08 01:55:08;;;;;;;5.20;4.18;;;4.00;98.70;;;;;;4922231;29;20199;-86
2021/04/08 01:57:38;;;;;;;4.22;3.67;;;4.00;97.00;;;;;;4921340;29;20210;-87
2021/04/08 02:00:06;;;;;;;5.40;4.00;;;4.00;96.70;;;;;;4919509;29;20231;-87
2021/04/08 02:02:33;;;;;;;6.90;3.50;;;4.00;96.70;;;;;;4921215;29;20211;-86
2021/04/08 02:05:01;;;;;;;8.05;4.35;;;4.00;96.90;;;;;;4922307;29;20216;-87
2021/04/08 02:07:28;;;;;;;4.25;3.85;;;4.00;96.90;;;;;;4920813;29;20215;-86
2021/04/08 02:09:55;;;;;;;6.60;4.40;;;4.00;97.20;;;;;;4920484;29;20227;-87
2021/04/08 02:12:23;;;;;;;5.60;3.92;;;4.00;97.00;;;;;;4920672;29;20212;-86
2021/04/08 02:14:50;;;;;;;6.05;4.15;;;4.00;96.70;;;;;;4920832;29;20234;-87
2021/04/08 02:17:18;;;;;;;6.38;4.78;;;3.90;96.90;;;;;;4932319;29;20202;-87
2021/04/08 02:19:47;;;;;;;4.97;3.90;;;3.90;97.20;;;;;;4933800;29;20216;-86
2021/04/08 02:22:14;;;;;;;5.70;4.35;;;3.90;97.30;;;;;;4921895;29;20221;-87
2021/04/08 02:24:42;;;;;;;5.25;3.65;;;4.00;97.50;;;;;;4920111;29;20298;-87
2021/04/08 02:27:09;;;;;;;4.50;4.10;;;4.00;97.30;;;;;;4919385;29;20289;-87
2021/04/08 02:29:36;;;;;;;6.32;4.15;;;4.00;97.00;;;;;;4922071;29;20708;-86
2021/04/08 02:32:04;;;;;;;5.95;4.90;;;4.00;97.10;;;;;;4924234;29;20585;-86
2021/04/08 02:34:30;;;;;;;4.00;3.67;;;4.00;97.50;;;;;;4920375;29;20229;-86
2021/04/08 02:36:57;;;;;;;4.40;3.75;;;4.00;97.50;;;;;;4920221;29;20212;-87
2021/04/08 02:39:24;;;;;;;5.47;4.47;;;4.00;97.80;;;;;;4920458;29;20224;-87
2021/04/08 02:41:50;;;;;;;10.52;5.05;;;4.00;97.70;;;;;;4921511;29;20205;-86
2021/04/08 02:44:17;;;;;;;4.90;3.85;;;4.10;97.30;;;;;;4925322;29;20213;-87
2021/04/08 02:46:44;;;;;;;4.82;4.10;;;4.00;97.30;;;;;;4924926;29;20227;-87
2021/04/08 02:49:10;;;;;;;6.25;4.03;;;4.10;96.90;;;;;;4920491;29;20199;-86
2021/04/08 02:51:43;;;;;;;5.93;4.50;;;4.20;96.70;;;;;;4921931;29;20208;-87
2021/04/08 02:54:16;;;;;;;5.65;4.40;;;4.10;96.50;;;;;;4920918;29;20863;-86
2021/04/08 02:56:46;;;;;;;4.13;3.72;;;4.10;96.80;;;;;;4921551;29;20679;-87
2021/04/08 02:59:18;;;;;;;4.28;3.88;;;4.10;97.40;;;;;;4922642;29;20221;-87
2021/04/08 03:01:50;;;;;;;4.97;4.43;;;4.00;97.20;;;;;;4921395;29;20219;-87
2021/04/08 03:04:20;;;;;;;4.65;3.60;;;4.10;97.10;;;;;;4920652;29;20211;-87
2021/04/08 03:06:48;;;;;;;5.18;3.78;;;4.10;97.30;;;;;;4920470;29;20258;-87
2021/04/08 03:09:15;;;;;;;6.20;3.35;;;4.10;97.60;;;;;;4920337;29;20209;-87
2021/04/08 03:11:44;;;;;;;5.28;4.50;;;4.10;97.70;;;;;;4920524;29;20211;-87
2021/04/08 03:14:12;;;;;;;6.05;4.18;;;4.10;97.70;;;;;;4920731;29;20229;-86
2021/04/08 03:16:41;;;;;;;3.70;3.40;;;4.10;97.50;;;;;;4920504;29;20200;-87
2021/04/08 03:19:12;;;;;;;5.57;5.07;;;4.20;97.20;;;;;;4936247;29;20231;-88
2021/04/08 03:21:39;;;;;;;4.85;4.10;;;4.20;97.30;;;;;;4922127;29;20708;-87
2021/04/08 03:24:07;;;;;;;4.78;3.95;;;4.20;97.20;;;;;;4920133;29;20672;-87
2021/04/08 03:26:34;;;;;;;6.75;4.40;;;4.20;97.30;;;;;;4923698;29;20211;-87
2021/04/08 03:29:02;;;;;;;6.35;3.97;;;4.20;96.80;;;;;;4938998;29;20200;-86
2021/04/08 03:31:29;;;;;;;5.28;4.20;;;4.20;96.70;;;;;;4936880;29;20208;-87
2021/04/08 03:33:57;;;;;;;5.60;4.55;;;4.20;96.30;;;;;;4931348;29;20235;-87
2021/04/08 03:36:24;;;;;;;7.00;4.47;;;4.30;95.80;;;;;;4921605;29;20199;-87
2021/04/08 03:38:51;;;;;;;6.75;4.88;;;4.20;95.30;;;;;;4922560;29;20213;-86
2021/04/08 03:41:19;;;;;;;6.70;5.10;;;4.10;94.60;;;;;;4924276;29;20737;-87
2021/04/08 03:43:45;;;;;;;7.78;5.18;;;4.10;93.90;;;;;;4940564;29;20203;-86
2021/04/08 03:46:13;;;;;;;8.40;6.28;;;4.10;93.80;;;;;;4933542;29;20267;-87
2021/04/08 03:48:42;;;;;;;6.45;5.85;;;4.10;94.20;;;;;;4918925;29;20267;-87
2021/04/08 03:51:10;;;;;;;6.30;5.70;;;4.20;94.60;;;;;;4917624;29;20234;-86
2021/04/08 03:53:38;;;;;;;6.45;4.47;;;4.20;94.30;;;;;;4918738;29;20259;-87
2021/04/08 03:56:06;;;;;;;8.98;5.88;;;4.20;94.20;;;;;;4918442;29;20678;-86
2021/04/08 03:58:34;;;;;;;6.43;5.70;;;4.20;94.30;;;;;;4918336;29;20244;-87
2021/04/08 04:01:01;;;;;;;6.15;4.85;;;4.10;94.10;;;;;;4917817;29;20349;-87
2021/04/08 04:03:28;;;;;;;6.23;5.63;;;4.10;94.10;;;;;;4918912;29;20221;-87
2021/04/08 04:05:55;;;;;;;7.88;7.07;;;4.20;94.20;;;;;;4928480;29;20453;-86
2021/04/08 04:08:21;;;;;;;8.60;5.45;;;4.20;94.40;;;;;;4935645;29;20220;-87
2021/04/08 04:10:48;;;;;;;8.98;5.78;;;4.10;94.40;;;;;;4933766;29;20220;-87
2021/04/08 04:13:16;;;;;;;7.57;6.90;;;4.10;94.60;;;;;;4922297;29;20688;-87
2021/04/08 04:15:49;;;;;;;7.03;6.32;;;4.10;94.50;;;;;;4918319;29;20216;-87
2021/04/08 04:18:17;;;;;;;8.45;5.35;;;4.20;94.40;;;;;;4918741;29;20212;-87
2021/04/08 04:20:45;;;;;;;6.43;5.83;;;4.10;94.60;;;;;;4920866;29;20243;-87
2021/04/08 04:23:12;;;;;;;7.05;6.10;;;4.10;94.60;;;;;;4919712;29;20447;-87
2021/04/08 04:25:38;;;;;;;8.32;6.00;;;4.10;94.50;;;;;;4918278;29;20592;-87
2021/04/08 04:28:05;;;;;;;7.10;6.17;;;4.10;94.70;;;;;;4918090;29;20204;-87
2021/04/08 04:30:31;;;;;;;6.70;5.18;;;4.10;94.70;;;;;;4918893;29;20492;-87
2021/04/08 04:32:57;;;;;;;7.85;5.75;;;4.10;94.50;;;;;;4918853;29;20215;-87
2021/04/08 04:35:24;;;;;;;8.23;5.85;;;4.00;94.60;;;;;;4918993;29;20641;-86
2021/04/08 04:37:51;;;;;;;6.75;5.93;;;4.00;94.60;;;;;;4918721;29;20288;-86
2021/04/08 04:40:19;;;;;;;9.55;5.97;;;4.00;94.80;;;;;;4920415;29;20239;-85
2021/04/08 04:42:45;;;;;;;7.82;6.45;;;4.00;94.80;;;;;;4924665;29;20208;-87
2021/04/08 04:45:14;;;;;;;8.48;6.20;;;4.00;94.70;;;;;;4921355;29;20672;-86
2021/04/08 04:47:41;;;;;;;5.43;4.40;;;4.00;94.70;;;;;;4925963;29;20208;-86
2021/04/08 04:50:10;;;;;;;5.95;5.28;;;4.00;95.10;;;;;;4934372;29;20239;-86
2021/04/08 04:52:36;;;;;;;6.93;6.32;;;4.00;95.20;;;;;;4939289;29;20205;-86
2021/04/08 04:55:04;;;;;;;6.03;4.70;;;3.90;95.20;;;;;;4937243;29;20236;-86
2021/04/08 04:57:30;;;;;;;7.32;6.35;;;3.90;95.40;;;;;;4936530;29;20200;-87
2021/04/08 04:59:56;;;;;;;6.10;4.47;;;3.90;95.40;;;;;;4924439;29;20232;-87
2021/04/08 05:02:22;;;;;;;6.57;4.70;;;3.90;95.40;;;;;;4918687;29;20204;-87
2021/04/08 05:04:49;;;;;;;5.97;4.97;;;3.90;95.60;;;;;;4918436;29;20200;-86
2021/04/08 05:07:16;;;;;;;7.20;5.65;;;4.00;96.20;;;;;;4917745;29;20208;-87
2021/04/08 05:09:42;;;;;;;8.82;4.75;;;4.00;95.70;;;;;;4924387;29;20236;-87
2021/04/08 05:12:10;;;;;;;6.32;4.93;;;4.00;95.40;;;;;;4938330;29;20200;-87
2021/04/08 05:14:36;;;;;;;6.70;4.55;;;4.10;95.10;;;;;;4924284;29;20256;-87
2021/04/08 05:17:02;;;;;;;5.32;4.07;;;4.10;95.20;;;;;;4919317;29;20272;-87
2021/04/08 05:19:28;;;;;;;6.20;4.28;;;4.10;94.80;;;;;;4917260;29;20582;-86
2021/04/08 05:21:55;;;;;;;5.60;4.43;;;4.10;94.90;;;;;;4917952;29;20211;-87
2021/04/08 05:24:22;;;;;;;8.20;4.60;;;4.10;94.90;;;;;;4925829;29;20555;-88
2021/04/08 05:26:51;;;;;;;5.60;4.88;;;4.20;95.10;;;;;;4925864;29;20199;-87
2021/04/08 05:29:18;;;;;;;5.27;4.67;;;4.30;94.90;;;;;;4928758;29;20204;-87
2021/04/08 05:31:45;;;;;;;7.47;4.55;;;4.30;94.30;;;;;;4929833;29;20463;-88
2021/04/08 05:34:11;;;;;;;5.55;5.05;;;4.30;92.90;;;;;;4932436;29;20292;-86
2021/04/08 05:36:37;;;;;;;9.20;5.20;;;4.30;92.50;;;;;;4930316;29;20219;-86
2021/04/08 05:39:04;;;;;;;12.95;5.40;;;4.30;92.20;;;;;;4939913;29;20202;-86
2021/04/08 05:41:31;;;;;;;9.30;5.05;;;4.40;92.30;;;;;;4940243;29;20199;-87
2021/04/08 05:43:57;;;;;;;8.07;4.90;;;4.50;92.30;;;;;;4934315;29;20658;-88
2021/04/08 05:46:24;;;;;;;5.30;4.80;;;4.50;91.90;;;;;;4937965;29;20236;-86
2021/04/08 05:48:50;;;;;;;5.47;4.60;;;4.60;92.10;;;;;;4940293;29;20201;-86
2021/04/08 05:51:17;;;;;;;9.93;6.68;;;4.50;91.40;;;;;;4934907;29;20232;-87
2021/04/08 05:53:43;;;;;;;7.60;5.88;;;4.60;91.20;;;;;;4921709;29;20221;-87
2021/04/08 05:56:11;;;;;;;7.38;6.22;;;4.70;91.40;;;;;;4921024;29;20726;-86
2021/04/08 05:58:46;;;;;;;6.80;5.80;;;4.80;91.40;;;;;;4919799;29;20201;-88
2021/04/08 06:01:30;;;;;;;7.88;6.10;;;4.80;90.50;;;;;;4919813;29;21012;-88
2021/04/08 06:04:06;;;;;;;8.80;5.50;;;4.90;89.90;;;;;;4919887;29;20212;-87
2021/04/08 06:06:50;;;;;;;6.10;5.50;;;5.10;89.70;;;;;;4919976;29;20714;-88
2021/04/08 06:09:16;;;;;;;10.40;6.30;;;5.20;88.10;;;;;;4916416;29;20430;-87
2021/04/08 06:15:10;;;;;;;11.03;7.40;;;5.40;86.60;;;;;;4850270;29;20479;-89
2021/04/08 06:18:26;;;;;;;7.20;6.50;;;5.40;86.00;;;;;;4865262;29;20462;-87
2021/04/08 06:24:14;;;;;;;6.93;4.53;;;5.50;85.70;;;;;;4766929;30;20539;-88
2021/04/08 06:30:07;;;;;;;7.90;4.87;;;5.40;84.00;;;;;;4860950;29;20484;-87
2021/04/08 06:32:34;;;;;;;7.60;5.67;;;5.50;83.90;;;;;;4922984;29;20915;-88
2021/04/08 06:35:00;;;;;;;8.60;5.27;;;5.80;83.90;;;;;;4923929;29;20498;-88
2021/04/08 06:37:28;;;;;;;7.40;5.60;;;5.90;82.30;;;;;;4934352;29;20443;-89
2021/04/08 06:39:54;;;;;;;5.93;4.30;;;6.10;81.30;;;;;;4917903;29;20451;-89
2021/04/08 06:42:20;;;;;;;6.07;5.33;;;6.40;81.50;;;;;;4935577;29;20445;-88
2021/04/08 06:44:50;;;;;;;5.83;4.63;;;6.60;80.10;;;;;;4925353;29;20438;-87
2021/04/08 06:47:26;;;;;;;5.40;4.60;;;6.60;78.10;;;;;;4930897;29;20521;-87
2021/04/08 06:49:57;;;;;;;11.60;7.60;;;6.60;77.30;;;;;;4932761;29;20481;-89
2021/04/08 06:52:25;;;;;;;7.03;4.97;;;6.80;75.20;;;;;;4929893;29;20455;-87
2021/04/08 06:58:17;;;;;;;6.10;4.73;;;7.00;74.30;;;;;;4883993;29;20503;-88
2021/04/08 07:00:46;;;;;;;10.23;5.60;;;7.10;72.30;;;;;;4885211;29;20467;-87
2021/04/08 07:03:12;;;;;;;8.90;4.90;;;7.20;68.50;;;;;;4910212;29;20445;-84
2021/04/08 07:05:46;;;;;;;7.80;5.80;;;7.30;68.30;;;;;;4941016;29;20457;-85
2021/04/08 07:08:12;;;;;;;12.47;10.30;;;7.30;68.60;;;;;;4935855;29;20481;-86
2021/04/08 07:10:41;;;;;;;10.30;8.80;;;7.60;67.50;;;;;;4925405;29;20556;-83
2021/04/08 07:13:07;;;;;;;6.43;5.60;;;8.00;66.30;;;;;;4918037;29;20463;-84
2021/04/08 07:15:34;;;;;;;8.23;6.00;;;8.50;62.40;;;;;;4922803;29;20446;-86
2021/04/08 07:18:00;;;;;;;9.83;6.40;;;8.70;60.60;;;;;;4922450;29;20431;-87
2021/04/08 07:20:27;;;;;;;6.90;5.90;;;8.90;61.60;;;;;;4906399;29;21158;-84
2021/04/08 07:23:08;;;;;;;12.50;6.93;;;9.60;60.30;;;;;;4921599;29;20459;-85
2021/04/08 07:25:34;;;;;;;7.47;5.70;;;9.70;58.10;;;;;;4922490;29;20458;-85
2021/04/08 07:28:22;;;;;;;6.53;5.27;;;9.70;57.60;;;;;;4924051;29;20447;-85
2021/04/08 07:30:48;;;;;;;7.10;4.87;;;9.60;57.20;;;;;;4925664;29;20478;-85
2021/04/08 07:33:16;;;;;;;6.43;5.43;;;10.30;56.10;;;;;;4929786;29;20455;-85
2021/04/08 07:35:43;;;;;;;12.80;6.07;;;10.80;52.60;;;;;;4926952;29;20459;-84
2021/04/08 07:38:09;;;;;;;7.93;5.33;;;11.70;51.00;;;;;;4932092;29;20461;-86
2021/04/08 07:40:35;;;;;;;6.20;5.50;;;11.90;49.30;;;;;;4932696;29;20806;-85
2021/04/08 07:43:12;;;;;;;6.57;5.20;;;12.00;48.80;;;;;;4926459;29;20454;-84
2021/04/08 07:45:39;;;;;;;5.57;4.97;;;12.20;48.30;;;;;;4936365;29;21024;-84
2021/04/08 07:48:07;;;;;;;6.87;5.47;;;12.50;45.90;;;;;;4937854;29;20435;-84
2021/04/08 07:50:35;;;;;;;5.73;5.17;;;12.50;44.80;;;;;;4929336;29;20474;-85
2021/04/08 07:53:01;;;;;;;8.20;5.00;;;11.50;45.10;;;;;;4928375;29;20459;-85
2021/04/08 07:55:36;;;;;;;8.10;5.97;;;11.20;46.90;;;;;;4934549;29;20446;-85
2021/04/08 07:58:05;;;;;;;6.77;5.20;;;10.90;47.50;;;;;;4929343;29;20454;-85
2021/04/08 08:00:34;;;;;;;6.57;5.50;;;10.80;47.60;;;;;;4931272;29;20471;-85
2021/04/08 08:03:03;;;;;;;7.60;5.57;;;11.30;47.20;;;;;;4933842;29;20446;-85
2021/04/08 08:05:31;;;;;;;9.27;7.10;;;11.70;46.70;;;;;;4926308;29;20434;-85
2021/04/08 08:08:10;;;;;;;8.43;6.80;;;11.20;44.50;;;;;;4922677;29;20455;-85
2021/04/08 08:10:40;;;;;;;9.30;7.23;;;10.70;46.30;;;;;;4924210;29;20466;-85
2021/04/08 08:13:23;;;;;;;8.70;7.53;;;10.40;48.60;;;;;;4922989;29;20522;-85
2021/04/08 08:15:50;;;;;;;10.27;7.50;;;10.20;50.10;;;;;;4920981;29;20447;-84
2021/04/08 08:18:29;;;;;;;7.80;7.00;;;10.80;50.10;;;;;;4924957;29;20948;-84
2021/04/08 08:21:09;;;;;;;7.37;6.50;;;11.30;48.90;;;;;;4922422;29;20480;-84
2021/04/08 08:23:41;;;;;;;7.60;6.87;;;11.60;46.60;;;;;;4923168;29;20450;-85
2021/04/08 08:26:27;;;;;;;8.37;7.00;;;12.10;45.80;;;;;;4923134;29;20459;-85
2021/04/08 08:28:54;;;;;;;9.70;7.80;;;12.50;44.70;;;;;;4918801;29;20453;-84
2021/04/08 08:31:39;;;;;;;8.20;7.30;;;12.90;44.20;;;;;;4931372;29;20539;-85
2021/04/08 08:34:08;;;;;;;8.97;6.70;;;13.20;44.30;;;;;;4926651;29;20490;-85
2021/04/08 08:36:34;;;;;;;9.30;7.17;;;14.00;43.90;;;;;;4924214;29;20550;-86
2021/04/08 08:39:02;;;;;;;7.37;6.63;;;13.20;43.50;;;;;;4922590;29;20877;-84
2021/04/08 08:41:29;;;;;;;7.50;6.30;;;12.60;44.00;;;;;;4925052;29;20455;-85
2021/04/08 08:43:57;;;;;;;7.17;6.47;;;13.00;44.60;;;;;;4925691;29;20451;-86
2021/04/08 08:46:25;;;;;;;9.33;7.00;;;12.50;44.90;;;;;;4928655;29;20462;-85
2021/04/08 08:48:53;;;;;;;8.57;5.33;;;11.90;46.00;;;;;;4929891;29;20457;-86
2021/04/08 08:51:20;;;;;;;6.90;6.30;;;12.50;46.00;;;;;;4929156;29;20567;-85
2021/04/08 08:53:46;;;;;;;7.17;6.30;;;13.00;45.90;;;;;;4932540;29;20545;-85
2021/04/08 08:56:14;;;;;;;7.00;5.57;;;14.90;44.80;;;;;;4930583;29;20447;-85
2021/04/08 08:58:40;;;;;;;6.73;6.20;;;15.40;40.20;;;;;;4933588;29;20451;-87
2021/04/08 09:01:07;;;;;;;8.00;5.97;;;13.80;40.00;;;;;;4927364;29;20471;-86
2021/04/08 09:03:34;;;;;;;10.20;6.10;;;12.10;41.30;;;;;;4929608;29;20455;-84
2021/04/08 09:06:06;;;;;;;7.73;5.50;;;11.60;44.40;;;;;;4927257;29;20498;-85
2021/04/08 09:08:36;;;;;;;6.50;5.13;;;12.10;44.60;;;;;;4930177;29;20565;-85
2021/04/08 09:11:02;;;;;;;7.33;4.77;;;12.50;44.50;;;;;;4931341;29;20522;-85
2021/04/08 09:13:29;;;;;;;5.40;4.90;;;13.70;43.40;;;;;;4940763;29;20441;-85
2021/04/08 09:15:58;;;;;;;7.00;4.33;;;16.10;41.70;;;;;;4937092;29;20454;-84
2021/04/08 09:18:25;;;;;;;5.00;4.20;;;17.10;38.00;;;;;;4931075;29;20464;-84
2021/04/08 09:20:53;;;;;;;6.37;4.90;;;15.90;36.70;;;;;;4930727;29;20495;-85
2021/04/08 09:23:22;;;;;;;4.50;4.10;;;14.70;38.40;;;;;;4930571;29;20477;-84
2021/04/08 09:25:55;;;;;;;7.40;6.20;;;12.60;40.20;;;;;;4932253;29;20434;-84
2021/04/08 09:28:22;;;;;;;7.40;5.67;;;11.10;43.00;;;;;;4939829;29;20459;-85
2021/04/08 09:30:57;;;;;;;6.17;4.70;;;10.50;44.80;;;;;;4934082;29;20470;-85
2021/04/08 09:33:59;;;;;;;7.27;5.63;;;10.20;46.70;;;;;;4936903;29;20454;-85
2021/04/08 09:36:42;;;;;;;6.07;5.00;;;10.20;47.60;;;;;;4933170;29;20460;-84
2021/04/08 09:39:28;;;;;;;7.00;4.67;;;9.50;48.00;;;;;;4922874;29;20458;-86
2021/04/08 09:42:02;;;;;;;7.13;4.50;;;9.10;49.10;;;;;;4932337;29;20451;-86
2021/04/08 09:44:29;;;;;;;7.13;5.00;;;8.70;49.80;;;;;;4928774;29;20462;-85
2021/04/08 09:47:14;;;;;;;10.10;5.97;;;8.90;51.40;;;;;;4932359;29;20511;-87
2021/04/08 09:50:07;;;;;;;8.77;5.33;;;9.20;52.20;;;;;;4942856;29;20466;-86
2021/04/08 09:53:06;;;;;;;7.10;5.70;;;10.10;50.70;;;;;;4935029;29;20935;-86
2021/04/08 09:55:41;;;;;;;7.30;5.60;;;10.40;49.80;;;;;;4918450;29;20487;-86
2021/04/08 09:58:25;;;;;;;5.30;4.40;;;10.50;49.20;;;;;;4922758;29;20454;-87
2021/04/08 10:00:53;;;;;;;8.00;5.90;;;10.60;49.20;;;;;;4926508;29;20979;-88
2021/04/08 10:03:30;;;;;;;6.57;5.87;;;10.40;49.30;;;;;;4924090;29;20477;-87
2021/04/08 10:05:57;;;;;;;7.40;4.83;;;10.50;49.80;;;;;;4924561;29;20454;-86
2021/04/08 10:08:24;;;;;;;8.20;5.57;;;10.40;50.20;;;;;;4926015;29;20463;-87
2021/04/08 10:10:52;;;;;;;8.40;5.07;;;10.40;50.00;;;;;;4928669;29;20482;-87
2021/04/08 10:13:25;;;;;;;7.60;5.70;;;10.40;49.50;;;;;;4928230;29;20447;-87
2021/04/08 10:15:58;;;;;;;8.83;5.27;;;10.40;49.00;;;;;;4927607;29;20950;-86
2021/04/08 10:18:26;;;;;;;7.63;6.83;;;10.50;49.00;;;;;;4923705;29;20481;-86
2021/04/08 10:20:55;;;;;;;7.70;5.73;;;10.50;48.80;;;;;;4931316;29;20482;-86
2021/04/08 10:23:32;;;;;;;6.90;5.67;;;10.40;48.30;;;;;;4927436;29;20465;-86
2021/04/08 10:26:05;;;;;;;8.23;5.93;;;10.40;48.00;;;;;;4940780;29;20447;-85
2021/04/08 10:28:39;;;;;;;7.10;5.80;;;10.40;48.20;;;;;;4926599;29;20525;-86
2021/04/08 10:31:20;;;;;;;7.30;5.07;;;10.40;48.40;;;;;;4925456;29;20536;-87
2021/04/08 10:41:02;;;;;;;12.00;6.20;;;10.20;48.30;;;;;;4866133;29;20453;-87
2021/04/08 10:46:33;;;;;;;6.37;5.77;;;10.30;48.10;;;;;;4921863;29;20481;-87
2021/04/08 10:49:05;;;;;;;7.80;6.60;;;10.40;47.90;;;;;;4929044;29;20451;-88
2021/04/08 10:54:33;;;;;;;7.00;6.40;;;10.80;48.30;;;;;;4928850;29;20466;-86
2021/04/08 10:57:12;;;;;;;8.50;6.37;;;11.00;48.00;;;;;;4923292;29;20435;-86
2021/04/08 10:59:43;;;;;;;6.97;6.27;;;11.10;47.90;;;;;;4927273;29;20529;-86
2021/04/08 11:05:19;;;;;;;9.17;6.90;;;10.70;47.70;;;;;;4927606;29;20446;-86
2021/04/08 11:07:49;;;;;;;7.40;6.70;;;11.50;48.10;;;;;;4926466;29;20453;-86
2021/04/08 11:10:26;;;;;;;7.20;6.60;;;12.80;46.20;;;;;;4926806;29;20471;-87
2021/04/08 11:13:09;;;;;;;10.27;8.90;;;13.10;44.50;;;;;;4927165;29;20431;-87
2021/04/08 11:15:45;;;;;;;11.60;8.77;;;12.60;44.30;;;;;;4922266;29;20496;-87
2021/04/08 11:18:15;;;;;;;14.73;10.77;;;12.80;44.60;;;;;;4926881;29;20438;-87
2021/04/08 11:21:05;;;;;;;32.90;26.63;;;13.10;44.60;;;;;;4924032;29;20463;-87
2021/04/08 11:23:41;;;;;;;13.60;9.70;;;14.30;43.30;;;;;;4923036;29;20481;-85
2021/04/08 11:26:08;;;;;;;11.00;8.13;;;14.80;42.00;;;;;;4927675;29;20452;-86
2021/04/08 11:28:41;;;;;;;6.87;6.17;;;16.20;40.90;;;;;;4929530;29;20446;-86
2021/04/08 11:31:18;;;;;;;6.90;5.80;;;17.40;38.20;;;;;;4919225;29;20511;-86
2021/04/08 11:33:53;;;;;;;7.63;6.57;;;17.80;36.70;;;;;;4923483;29;20461;-86
2021/04/08 11:36:26;;;;;;;6.47;5.97;;;18.30;35.90;;;;;;4931086;29;20449;-87
2021/04/08 11:39:08;;;;;;;6.43;5.63;;;19.50;34.70;;;;;;4925736;29;20443;-87
2021/04/08 11:41:35;;;;;;;7.10;6.40;;;19.90;33.80;;;;;;4933082;29;20439;-86
2021/04/08 11:44:01;;;;;;;6.50;5.80;;;20.60;32.70;;;;;;4937233;29;20474;-86
2021/04/08 11:46:35;;;;;;;8.53;6.40;;;19.50;32.30;;;;;;4937013;29;20473;-88
2021/04/08 11:49:14;;;;;;;7.57;6.27;;;18.00;33.80;;;;;;4935003;29;20474;-87
2021/04/08 11:51:41;;;;;;;6.20;5.50;;;17.30;35.00;;;;;;4942323;29;20481;-86
2021/04/08 11:54:08;;;;;;;6.67;6.07;;;17.00;35.50;;;;;;4927091;29;20442;-88
2021/04/08 11:56:36;;;;;;;6.97;6.37;;;16.40;36.10;;;;;;4928379;29;20443;-86
2021/04/08 11:59:11;;;;;;;7.53;5.50;;;16.40;36.40;;;;;;4941931;29;20516;-87
2021/04/08 12:01:41;;;;;;;6.40;5.90;;;16.40;36.60;;;;;;4926678;29;20481;-86
2021/04/08 12:04:18;;;;;;;6.70;5.80;;;16.00;36.40;;;;;;4921584;29;20536;-86
2021/04/08 12:06:46;;;;;;;8.00;5.00;;;15.70;36.90;;;;;;4920909;29;20980;-85
2021/04/08 12:09:37;;;;;;;6.60;5.83;;;17.00;37.00;;;;;;4927890;29;20828;-87
2021/04/08 12:12:23;;;;;;;7.60;4.77;;;19.30;34.60;;;;;;4934397;29;20458;-85
2021/04/08 12:14:53;;;;;;;5.17;4.67;;;19.60;31.70;;;;;;4927235;29;20505;-87
2021/04/08 12:20:53;;;;;;;5.33;4.83;;;16.30;33.90;;;;;;4900847;29;21005;-87
2021/04/08 12:23:35;;;;;;;4.93;4.40;;;14.80;36.10;;;;;;4923978;29;20487;-87
2021/04/08 12:26:05;;;;;;;6.07;5.30;;;14.00;37.60;;;;;;4925391;29;20475;-86
2021/04/08 12:28:37;;;;;;;6.47;5.00;;;13.50;39.20;;;;;;4926674;29;20502;-86
2021/04/08 12:31:03;;;;;;;6.53;4.97;;;13.30;39.10;;;;;;4928525;29;20467;-87
2021/04/08 12:33:33;;;;;;;7.30;5.20;;;12.50;39.70;;;;;;4922933;29;20447;-88
2021/04/08 12:36:13;;;;;;;9.00;4.60;;;12.20;41.20;;;;;;4921921;29;20542;-86
2021/04/08 12:38:57;;;;;;;5.30;4.40;;;12.50;41.60;;;;;;4928953;29;20815;-87
2021/04/08 12:41:34;;;;;;;4.70;4.30;;;12.80;40.70;;;;;;4911972;29;20484;-87
2021/04/08 12:44:12;;;;;;;7.20;4.57;;;13.00;40.30;;;;;;4924756;29;20470;-87
2021/04/08 12:46:51;;;;;;;5.80;4.57;;;13.00;40.40;;;;;;4926527;29;20446;-85
2021/04/08 12:49:31;;;;;;;6.07;5.00;;;13.10;40.20;;;;;;4927604;29;20539;-86
2021/04/08 12:51:57;;;;;;;5.90;4.30;;;13.50;39.80;;;;;;4925763;29;20466;-87
2021/04/08 12:54:23;;;;;;;4.90;3.90;;;12.80;38.80;;;;;;4926704;29;20829;-86
2021/04/08 12:56:59;;;;;;;7.93;6.10;;;12.60;40.60;;;;;;4926432;29;20458;-87
2021/04/08 12:59:35;;;;;;;5.60;4.30;;;12.50;40.70;;;;;;4964373;23;20505;-84
2021/04/08 13:02:11;;;;;;;6.80;4.90;;;12.60;40.60;;;;;;4958631;28;20445;-85
2021/04/08 13:12:19;;;;;;;3.93;3.53;;;14.10;39.70;;;;;;4793173;29;20445;-86
2021/04/08 13:15:42;;;;;;;3.43;3.13;;;13.70;39.00;;;;;;4890387;29;20511;-86
2021/04/08 13:22:08;;;;;;;6.63;5.30;;;13.50;40.30;;;;;;4947620;28;20452;-85
2021/04/08 13:25:20;;;;;;;5.30;4.17;;;13.20;39.80;;;;;;4947564;28;20698;-85
2021/04/08 13:28:29;;;;;;;6.40;4.27;;;12.80;40.20;;;;;;4942618;29;20466;-86
2021/04/08 13:31:34;;;;;;;7.73;4.77;;;12.90;40.90;;;;;;4936103;29;20446;-86
2021/04/08 13:34:03;;;;;;;4.93;4.43;;;12.90;40.70;;;;;;4909102;29;20446;-86
2021/04/08 13:36:41;;;;;;;7.03;4.20;;;13.00;40.20;;;;;;4941074;29;20474;-85
2021/04/08 13:39:19;;;;;;;5.23;4.23;;;13.00;40.20;;;;;;4930165;29;20467;-86
2021/04/08 13:51:51;;;;;;;6.47;4.33;;;19.20;30.70;;;;;;4773481;30;20437;-87
2021/04/08 13:57:59;;;;;;;;;;;;;;;;;;;;;
2021/04/08 14:04:30;;;;;;;4.33;3.93;;;15.00;34.80;;;;;;4871863;29;20475;-87
2021/04/08 14:07:05;;;;;;;6.47;5.10;;;15.20;35.20;;;;;;4928645;29;20805;-85
2021/04/08 14:09:47;;;;;;;6.57;4.23;;;14.70;35.90;;;;;;4928968;29;20505;-87
2021/04/08 14:12:17;;;;;;;6.43;3.67;;;15.10;36.20;;;;;;4928258;29;20458;-87
2021/04/08 14:14:46;;;;;;;3.53;3.20;;;14.90;35.90;;;;;;4927556;29;20443;-85